CCA990 KLAX-ZBAA
Flight info
| Callsign | CCA990 |
|---|---|
| Flight time | N/A |
| Altitude | 36000 |
| Route | SUMMR2 SCTRR DCT PYE J143 ENI DCT MITOH DCT 44N130W 49N140W 53N150W/N0490F380 55N160W DCT CDB A342 NUZAN/N0495F400 R220 NOGAL/N0485F410 R220 NODAN/N0485F400 R217 GTC Y142 SAMON Y14 SUGNO Y16 SAPRA Y685 SEL Y697 AGAVO/K0911S1220 A591 IKEKA W4 HCH W200 DOVIV W55 DUMAP DUMAP9Z |
| Aircraft | A359/H-SDE2E3GHIJ3J4J5LM1ORWXY/LB1D1 |
Departure
| Time | 2026-05-07 00:31 |
|---|---|
| Airport | Los Angeles International Airport (KLAX) |
Arrival
| Time | N/A |
|---|---|
| Airport | Beijing Capital International Airport (ZBAA) |
| Time | Latitude | Longitude | Altitude | Speed | Heading |
|---|---|---|---|---|---|
| 2026-05-07 00:03 | 33.94177 | -118.41105 | 125 ft | 0 kts | 82° |
| 2026-05-07 00:18 | 33.94176 | -118.41115 | 132 ft | 4 kts | 82° |
| 2026-05-07 00:18 | 33.94172 | -118.41147 | 132 ft | 4 kts | 82° |
| 2026-05-07 00:19 | 33.94170 | -118.41174 | 129 ft | 4 kts | 79° |
| 2026-05-07 00:19 | 33.94160 | -118.41198 | 132 ft | 4 kts | 21° |
| 2026-05-07 00:19 | 33.94134 | -118.41202 | 132 ft | 3 kts | 353° |
| 2026-05-07 00:19 | 33.94132 | -118.41201 | 132 ft | 0 kts | 353° |
| 2026-05-07 00:20 | 33.94132 | -118.41202 | 132 ft | 0 kts | 353° |
| 2026-05-07 00:24 | 33.94133 | -118.41202 | 132 ft | 2 kts | 353° |
| 2026-05-07 00:24 | 33.94181 | -118.41208 | 127 ft | 12 kts | 352° |
| 2026-05-07 00:24 | 33.94283 | -118.41223 | 128 ft | 15 kts | 355° |
| 2026-05-07 00:24 | 33.94391 | -118.41237 | 129 ft | 16 kts | 353° |
| 2026-05-07 00:25 | 33.94511 | -118.41258 | 129 ft | 21 kts | 352° |
| 2026-05-07 00:25 | 33.94656 | -118.41280 | 130 ft | 21 kts | 354° |
| 2026-05-07 00:25 | 33.94688 | -118.41284 | 126 ft | 0 kts | 354° |
| 2026-05-07 00:25 | 33.94695 | -118.41285 | 126 ft | 5 kts | 354° |
| 2026-05-07 00:26 | 33.94773 | -118.41282 | 125 ft | 9 kts | 22° |
| 2026-05-07 00:26 | 33.94800 | -118.41222 | 124 ft | 9 kts | 80° |
| 2026-05-07 00:26 | 33.94809 | -118.41141 | 132 ft | 11 kts | 82° |
| 2026-05-07 00:26 | 33.94819 | -118.41050 | 125 ft | 12 kts | 82° |
| 2026-05-07 00:27 | 33.94829 | -118.40949 | 124 ft | 13 kts | 84° |
| 2026-05-07 00:27 | 33.94835 | -118.40877 | 124 ft | 13 kts | 84° |
| 2026-05-07 00:27 | 33.94851 | -118.40726 | 129 ft | 14 kts | 83° |
| 2026-05-07 00:27 | 33.94863 | -118.40603 | 123 ft | 15 kts | 83° |
| 2026-05-07 00:28 | 33.94876 | -118.40475 | 123 ft | 16 kts | 83° |
| 2026-05-07 00:28 | 33.94886 | -118.40383 | 132 ft | 17 kts | 81° |
| 2026-05-07 00:28 | 33.94900 | -118.40266 | 125 ft | 10 kts | 82° |
| 2026-05-07 00:28 | 33.94909 | -118.40181 | 127 ft | 11 kts | 82° |
| 2026-05-07 00:29 | 33.94918 | -118.40088 | 123 ft | 12 kts | 85° |
| 2026-05-07 00:29 | 33.94927 | -118.39987 | 132 ft | 12 kts | 78° |
| 2026-05-07 00:30 | 33.95023 | -118.40142 | 132 ft | 41 kts | 263° |
| 2026-05-07 00:30 | 33.94964 | -118.40710 | 129 ft | 94 kts | 263° |
| 2026-05-07 00:30 | 33.94863 | -118.41691 | 123 ft | 140 kts | 263° |
| 2026-05-07 00:30 | 33.94728 | -118.42964 | 371 ft | 158 kts | 262° |
| 2026-05-07 00:31 | 33.94586 | -118.44299 | 779 ft | 162 kts | 261° |
| 2026-05-07 00:31 | 33.94421 | -118.45650 | 1238 ft | 163 kts | 261° |
| 2026-05-07 00:31 | 33.94265 | -118.47072 | 1452 ft | 179 kts | 264° |
| 2026-05-07 00:31 | 33.94149 | -118.48635 | 1646 ft | 194 kts | 266° |
| 2026-05-07 00:32 | 33.94097 | -118.50286 | 1909 ft | 206 kts | 269° |
| 2026-05-07 00:32 | 33.94089 | -118.52049 | 2215 ft | 215 kts | 270° |
| 2026-05-07 00:32 | 33.94062 | -118.53882 | 2528 ft | 223 kts | 268° |
| 2026-05-07 00:32 | 33.93929 | -118.55811 | 2727 ft | 238 kts | 264° |
| 2026-05-07 00:33 | 33.93736 | -118.57854 | 2878 ft | 252 kts | 264° |
| 2026-05-07 00:33 | 33.93544 | -118.59983 | 3146 ft | 259 kts | 264° |
| 2026-05-07 00:33 | 33.93362 | -118.62135 | 3453 ft | 264 kts | 265° |
| 2026-05-07 00:33 | 33.93180 | -118.64347 | 3809 ft | 266 kts | 266° |
| 2026-05-07 00:34 | 33.93005 | -118.66577 | 4185 ft | 268 kts | 266° |
| 2026-05-07 00:34 | 33.92829 | -118.68803 | 4566 ft | 269 kts | 267° |
| 2026-05-07 00:34 | 33.92651 | -118.71091 | 4910 ft | 282 kts | 267° |
| 2026-05-07 00:34 | 33.92463 | -118.73542 | 5004 ft | 307 kts | 267° |
| 2026-05-07 00:35 | 33.92259 | -118.76165 | 5405 ft | 317 kts | 266° |
| 2026-05-07 00:35 | 33.92053 | -118.78765 | 6342 ft | 307 kts | 266° |
| 2026-05-07 00:35 | 33.91851 | -118.81295 | 7185 ft | 300 kts | 266° |
| 2026-05-07 00:35 | 33.91721 | -118.83788 | 7881 ft | 296 kts | 272° |
| 2026-05-07 00:36 | 33.91766 | -118.86291 | 8461 ft | 297 kts | 275° |
| 2026-05-07 00:36 | 33.91846 | -118.88770 | 8980 ft | 299 kts | 275° |
| 2026-05-07 00:36 | 33.91928 | -118.91280 | 9464 ft | 302 kts | 275° |
| 2026-05-07 00:36 | 33.92007 | -118.93811 | 9960 ft | 305 kts | 275° |
| 2026-05-07 00:37 | 33.92088 | -118.96391 | 10258 ft | 312 kts | 275° |
| 2026-05-07 00:37 | 33.92338 | -118.99019 | 10462 ft | 320 kts | 287° |
| 2026-05-07 00:37 | 33.93123 | -119.01539 | 10691 ft | 324 kts | 303° |
| 2026-05-07 00:37 | 33.94466 | -119.03710 | 10910 ft | 328 kts | 319° |
| 2026-05-07 00:38 | 33.96162 | -119.05581 | 11133 ft | 335 kts | 323° |
| 2026-05-07 00:38 | 33.97996 | -119.07365 | 11388 ft | 343 kts | 326° |
| 2026-05-07 00:38 | 33.99914 | -119.09139 | 11609 ft | 352 kts | 326° |
| 2026-05-07 00:38 | 34.01899 | -119.10955 | 11848 ft | 364 kts | 326° |
| 2026-05-07 00:39 | 34.03945 | -119.12843 | 12115 ft | 375 kts | 326° |
| 2026-05-07 00:39 | 34.06037 | -119.14799 | 12365 ft | 385 kts | 325° |
| 2026-05-07 00:39 | 34.08147 | -119.16799 | 12800 ft | 390 kts | 324° |
| 2026-05-07 00:39 | 34.10289 | -119.18846 | 13292 ft | 393 kts | 324° |
| 2026-05-07 00:40 | 34.12431 | -119.20900 | 13748 ft | 396 kts | 324° |
| 2026-05-07 00:40 | 34.14602 | -119.22985 | 14156 ft | 399 kts | 324° |
| 2026-05-07 00:40 | 34.16784 | -119.25080 | 14583 ft | 401 kts | 324° |
| 2026-05-07 00:40 | 34.18976 | -119.27182 | 15030 ft | 403 kts | 324° |
| 2026-05-07 00:41 | 34.21182 | -119.29299 | 15467 ft | 405 kts | 324° |
| 2026-05-07 00:41 | 34.23365 | -119.31397 | 15885 ft | 407 kts | 324° |
| 2026-05-07 00:41 | 34.25619 | -119.33563 | 16305 ft | 410 kts | 324° |
| 2026-05-07 00:41 | 34.27830 | -119.35690 | 16748 ft | 412 kts | 324° |
| 2026-05-07 00:42 | 34.30073 | -119.37849 | 17189 ft | 414 kts | 324° |
| 2026-05-07 00:42 | 34.32329 | -119.40020 | 17646 ft | 416 kts | 324° |
| 2026-05-07 00:42 | 34.34594 | -119.42203 | 18098 ft | 418 kts | 324° |
| 2026-05-07 00:42 | 34.36877 | -119.44404 | 18521 ft | 420 kts | 324° |
| 2026-05-07 00:43 | 34.39171 | -119.46621 | 18910 ft | 422 kts | 324° |
| 2026-05-07 00:43 | 34.41466 | -119.48837 | 19299 ft | 425 kts | 324° |
| 2026-05-07 00:43 | 34.43789 | -119.51079 | 19680 ft | 427 kts | 324° |
| 2026-05-07 00:43 | 34.46119 | -119.53330 | 20083 ft | 429 kts | 324° |
| 2026-05-07 00:44 | 34.48458 | -119.55594 | 20455 ft | 432 kts | 324° |
| 2026-05-07 00:44 | 34.50815 | -119.57875 | 20855 ft | 434 kts | 324° |
| 2026-05-07 00:44 | 34.53185 | -119.60171 | 21258 ft | 436 kts | 324° |
| 2026-05-07 00:44 | 34.55558 | -119.62473 | 21666 ft | 439 kts | 324° |
| 2026-05-07 00:45 | 34.57955 | -119.64799 | 22064 ft | 441 kts | 324° |
| 2026-05-07 00:45 | 34.60347 | -119.67123 | 22478 ft | 443 kts | 324° |
| 2026-05-07 00:45 | 34.62731 | -119.69440 | 22884 ft | 445 kts | 324° |
| 2026-05-07 00:45 | 34.65156 | -119.71798 | 23288 ft | 448 kts | 324° |
| 2026-05-07 00:46 | 34.67600 | -119.74178 | 23706 ft | 450 kts | 324° |
| 2026-05-07 00:46 | 34.70055 | -119.76569 | 24062 ft | 453 kts | 324° |
| 2026-05-07 00:46 | 34.72519 | -119.78971 | 24424 ft | 455 kts | 324° |
| 2026-05-07 00:46 | 34.74990 | -119.81383 | 24791 ft | 457 kts | 324° |
| 2026-05-07 00:47 | 34.77481 | -119.83816 | 25140 ft | 459 kts | 324° |
| 2026-05-07 00:47 | 34.79971 | -119.86249 | 25519 ft | 461 kts | 324° |
| 2026-05-07 00:47 | 34.82481 | -119.88705 | 25881 ft | 463 kts | 324° |
| 2026-05-07 00:47 | 34.84993 | -119.91165 | 26253 ft | 465 kts | 324° |
| 2026-05-07 00:48 | 34.87485 | -119.93606 | 26582 ft | 467 kts | 324° |
| 2026-05-07 00:48 | 34.90031 | -119.96099 | 26912 ft | 469 kts | 324° |
| 2026-05-07 00:48 | 34.92580 | -119.98600 | 27268 ft | 471 kts | 324° |
| 2026-05-07 00:48 | 34.95138 | -120.01115 | 27613 ft | 473 kts | 323° |
| 2026-05-07 00:49 | 34.97708 | -120.03643 | 27952 ft | 474 kts | 324° |
| 2026-05-07 00:49 | 35.00287 | -120.06180 | 28263 ft | 476 kts | 324° |
| 2026-05-07 00:49 | 35.02866 | -120.08719 | 28545 ft | 479 kts | 324° |
| 2026-05-07 00:49 | 35.05460 | -120.11276 | 28886 ft | 480 kts | 324° |
| 2026-05-07 00:50 | 35.08061 | -120.13840 | 29177 ft | 482 kts | 323° |
| 2026-05-07 00:50 | 35.10684 | -120.16429 | 29435 ft | 484 kts | 323° |
| 2026-05-07 00:50 | 35.13271 | -120.18985 | 29842 ft | 483 kts | 323° |
| 2026-05-07 00:50 | 35.15875 | -120.21561 | 30312 ft | 480 kts | 323° |
| 2026-05-07 00:51 | 35.18469 | -120.24129 | 30589 ft | 481 kts | 323° |
| 2026-05-07 00:51 | 35.21072 | -120.26708 | 30844 ft | 482 kts | 323° |
| 2026-05-07 00:51 | 35.23676 | -120.29289 | 31165 ft | 481 kts | 323° |
| 2026-05-07 00:51 | 35.26273 | -120.31865 | 31452 ft | 481 kts | 323° |
| 2026-05-07 00:52 | 35.28874 | -120.34448 | 31741 ft | 481 kts | 323° |
| 2026-05-07 00:52 | 35.31471 | -120.37029 | 32074 ft | 479 kts | 323° |
| 2026-05-07 00:52 | 35.34050 | -120.39595 | 32342 ft | 479 kts | 323° |
| 2026-05-07 00:52 | 35.36645 | -120.42177 | 32535 ft | 480 kts | 323° |
| 2026-05-07 00:53 | 35.39234 | -120.44756 | 32773 ft | 480 kts | 323° |
| 2026-05-07 00:53 | 35.41820 | -120.47336 | 33045 ft | 480 kts | 323° |
| 2026-05-07 00:53 | 35.44409 | -120.49920 | 33300 ft | 479 kts | 323° |
| 2026-05-07 00:53 | 35.46997 | -120.52505 | 33551 ft | 479 kts | 323° |
| 2026-05-07 00:54 | 35.49573 | -120.55082 | 33809 ft | 478 kts | 323° |
| 2026-05-07 00:54 | 35.52131 | -120.57642 | 34038 ft | 478 kts | 323° |
| 2026-05-07 00:54 | 35.54727 | -120.60194 | 34236 ft | 477 kts | 326° |
| 2026-05-07 00:54 | 35.57411 | -120.62581 | 34414 ft | 476 kts | 328° |
| 2026-05-07 00:55 | 35.60143 | -120.64870 | 34630 ft | 475 kts | 329° |
| 2026-05-07 00:55 | 35.62881 | -120.67130 | 34818 ft | 474 kts | 329° |
| 2026-05-07 00:55 | 35.65613 | -120.69401 | 35038 ft | 473 kts | 328° |
| 2026-05-07 00:55 | 35.68328 | -120.71690 | 35240 ft | 472 kts | 328° |
| 2026-05-07 00:56 | 35.71025 | -120.73991 | 35393 ft | 472 kts | 328° |
| 2026-05-07 00:56 | 35.73716 | -120.76307 | 35560 ft | 471 kts | 328° |
| 2026-05-07 00:56 | 35.76356 | -120.78590 | 35712 ft | 471 kts | 327° |
| 2026-05-07 00:56 | 35.79047 | -120.80924 | 35865 ft | 471 kts | 327° |
| 2026-05-07 00:57 | 35.81733 | -120.83254 | 35990 ft | 471 kts | 327° |
| 2026-05-07 00:57 | 35.84424 | -120.85590 | 36025 ft | 473 kts | 327° |
| 2026-05-07 00:57 | 35.89802 | -120.90261 | 36019 ft | 477 kts | 327° |
| 2026-05-07 00:58 | 35.95225 | -120.94979 | 36019 ft | 475 kts | 327° |
| 2026-05-07 00:58 | 36.00627 | -120.99687 | 36021 ft | 476 kts | 327° |
| 2026-05-07 00:59 | 36.08745 | -121.06775 | 36024 ft | 475 kts | 327° |
| 2026-05-07 01:00 | 36.14119 | -121.11477 | 36029 ft | 475 kts | 327° |
| 2026-05-07 01:00 | 36.19514 | -121.16205 | 36034 ft | 475 kts | 327° |
| 2026-05-07 01:01 | 36.24900 | -121.20935 | 36041 ft | 474 kts | 327° |
| 2026-05-07 01:01 | 36.30284 | -121.25671 | 36042 ft | 474 kts | 327° |
| 2026-05-07 01:02 | 36.35683 | -121.30428 | 36055 ft | 475 kts | 327° |
| 2026-05-07 01:02 | 36.41042 | -121.35158 | 36056 ft | 475 kts | 327° |
| 2026-05-07 01:03 | 36.46435 | -121.39926 | 36053 ft | 475 kts | 327° |
| 2026-05-07 01:03 | 36.51825 | -121.44699 | 36066 ft | 475 kts | 326° |
| 2026-05-07 01:04 | 36.57200 | -121.49469 | 36073 ft | 474 kts | 326° |
| 2026-05-07 01:04 | 36.62567 | -121.54239 | 36070 ft | 474 kts | 326° |
| 2026-05-07 01:05 | 36.67943 | -121.59024 | 36072 ft | 475 kts | 326° |
| 2026-05-07 01:05 | 36.73273 | -121.63779 | 36074 ft | 474 kts | 326° |
| 2026-05-07 01:06 | 36.78637 | -121.68571 | 36083 ft | 474 kts | 326° |
| 2026-05-07 01:06 | 36.83993 | -121.73365 | 36056 ft | 474 kts | 326° |
| 2026-05-07 01:07 | 36.89343 | -121.78162 | 36056 ft | 473 kts | 326° |
| 2026-05-07 01:07 | 36.94695 | -121.82969 | 36056 ft | 474 kts | 326° |
| 2026-05-07 01:08 | 37.00059 | -121.87795 | 36066 ft | 474 kts | 326° |
| 2026-05-07 01:08 | 37.05380 | -121.92592 | 36064 ft | 474 kts | 326° |
| 2026-05-07 01:09 | 37.10754 | -121.97445 | 36129 ft | 473 kts | 325° |
| 2026-05-07 01:09 | 37.16063 | -122.02246 | 36134 ft | 473 kts | 325° |
| 2026-05-07 01:10 | 37.21404 | -122.07085 | 36133 ft | 473 kts | 325° |
| 2026-05-07 01:10 | 37.26740 | -122.11934 | 36131 ft | 474 kts | 325° |
| 2026-05-07 01:11 | 37.32078 | -122.16788 | 36132 ft | 474 kts | 325° |
| 2026-05-07 01:11 | 37.37417 | -122.21649 | 36131 ft | 473 kts | 325° |
| 2026-05-07 01:12 | 37.42737 | -122.26504 | 36137 ft | 472 kts | 325° |
| 2026-05-07 01:12 | 37.48030 | -122.31344 | 36138 ft | 472 kts | 324° |
| 2026-05-07 01:13 | 37.53340 | -122.36207 | 36144 ft | 472 kts | 324° |
| 2026-05-07 01:13 | 37.58632 | -122.41064 | 36146 ft | 472 kts | 324° |
| 2026-05-07 01:14 | 37.63951 | -122.45954 | 36148 ft | 472 kts | 324° |
| 2026-05-07 01:14 | 37.69255 | -122.50839 | 36146 ft | 471 kts | 324° |
| 2026-05-07 01:15 | 37.74546 | -122.55720 | 36147 ft | 471 kts | 324° |
| 2026-05-07 01:15 | 37.79838 | -122.60611 | 36148 ft | 471 kts | 324° |
| 2026-05-07 01:16 | 37.85132 | -122.65513 | 36146 ft | 472 kts | 324° |
| 2026-05-07 01:16 | 37.90408 | -122.70407 | 36146 ft | 472 kts | 324° |
| 2026-05-07 01:17 | 37.95706 | -122.75331 | 36154 ft | 472 kts | 324° |
| 2026-05-07 01:17 | 38.00996 | -122.80257 | 36143 ft | 472 kts | 324° |
| 2026-05-07 01:18 | 38.05425 | -122.84353 | 36155 ft | 472 kts | 326° |
| 2026-05-07 01:18 | 38.11281 | -122.88076 | 36158 ft | 471 kts | 339° |
| 2026-05-07 01:19 | 38.17492 | -122.90788 | 36146 ft | 472 kts | 341° |
| 2026-05-07 01:19 | 38.24770 | -122.93751 | 36136 ft | 472 kts | 341° |
| 2026-05-07 01:20 | 38.29977 | -122.95874 | 36140 ft | 472 kts | 341° |
| 2026-05-07 01:20 | 38.36238 | -122.98457 | 36133 ft | 472 kts | 341° |
| 2026-05-07 01:21 | 38.42486 | -123.01052 | 36129 ft | 472 kts | 341° |
| 2026-05-07 01:21 | 38.48729 | -123.03652 | 36126 ft | 472 kts | 341° |
| 2026-05-07 01:22 | 38.54973 | -123.06255 | 36129 ft | 471 kts | 341° |
| 2026-05-07 01:22 | 38.61208 | -123.08861 | 36129 ft | 471 kts | 341° |
| 2026-05-07 01:23 | 38.67407 | -123.11456 | 36120 ft | 471 kts | 340° |
| 2026-05-07 01:23 | 38.73635 | -123.14069 | 36107 ft | 471 kts | 340° |
| 2026-05-07 01:24 | 38.79880 | -123.16693 | 36120 ft | 471 kts | 340° |
| 2026-05-07 01:24 | 38.86107 | -123.19310 | 36112 ft | 472 kts | 340° |
| 2026-05-07 01:25 | 38.92356 | -123.21944 | 36115 ft | 472 kts | 340° |
| 2026-05-07 01:25 | 38.98586 | -123.24575 | 36110 ft | 471 kts | 340° |
| 2026-05-07 01:26 | 39.04591 | -123.27757 | 36117 ft | 469 kts | 328° |
| 2026-05-07 01:26 | 39.09767 | -123.32830 | 36116 ft | 467 kts | 317° |
| 2026-05-07 01:27 | 39.14503 | -123.38541 | 36114 ft | 466 kts | 315° |
| 2026-05-07 01:27 | 39.19169 | -123.44357 | 36121 ft | 466 kts | 315° |
| 2026-05-07 01:28 | 39.23802 | -123.50119 | 36131 ft | 466 kts | 315° |